Time;durP1;ratioP1;P1;durP2;ratioP2;P2;SDS_P1;SDS_P2;PMS_P1;PMS_P2;Temp;Humidity;BMP_temperature;BMP_pressure;BME280_temperature;BME280_humidity;BME280_pressure;Samples;Min_cycle;Max_cycle;Signal;HPM_P1;HPM_P2
2022/02/19 00:00:42;;;;;;;1.2;0.8;;;;;;;6.14;71.74219;94764.01;;;;
2022/02/19 00:01:43;;;;;;;1.2;0.8;;;;;;;6.14;71.74219;94764.01;;;;
2022/02/19 00:02:43;;;;;;;1.2;0.8;;;;;;;6.14;71.74219;94764.01;;;;
2022/02/19 00:03:44;;;;;;;1.2;0.8;;;;;;;6.14;71.74219;94764.01;;;;
2022/02/19 00:04:44;;;;;;;1;0.9;;;;;;;6.14;71.82715;94765.77;;;;
2022/02/19 00:05:44;;;;;;;1;0.9;;;;;;;6.14;71.82715;94765.77;;;;
2022/02/19 00:06:45;;;;;;;1;0.9;;;;;;;6.14;71.82715;94765.77;;;;
2022/02/19 00:07:46;;;;;;;1;0.9;;;;;;;6.14;71.82715;94765.77;;;;
2022/02/19 00:08:47;;;;;;;1;0.9;;;;;;;6.14;71.82715;94765.77;;;;
2022/02/19 00:09:47;;;;;;;1;0.9;;;;;;;6.14;71.82715;94765.77;;;;
2022/02/19 00:10:48;;;;;;;1;0.9;;;;;;;6.14;71.82715;94765.77;;;;
2022/02/19 00:11:50;;;;;;;1;0.9;;;;;;;6.14;71.82715;94765.77;;;;
2022/02/19 00:12:51;;;;;;;1;0.9;;;;;;;6.14;71.82715;94765.77;;;;
2022/02/19 00:13:52;;;;;;;1;0.9;;;;;;;6.14;71.82715;94765.77;;;;
2022/02/19 00:14:52;;;;;;;1;0.9;;;;;;;6.14;71.82715;94765.77;;;;
2022/02/19 00:15:53;;;;;;;4.35;0.9;;;;;;;6.15;71.98535;94780;;;;
2022/02/19 00:16:53;;;;;;;4.35;0.9;;;;;;;6.15;71.98535;94780;;;;
2022/02/19 00:17:54;;;;;;;4.35;0.9;;;;;;;6.15;71.98535;94780;;;;
2022/02/19 00:18:55;;;;;;;4.35;0.9;;;;;;;6.15;71.98535;94780;;;;
2022/02/19 00:19:55;;;;;;;4.35;0.9;;;;;;;6.15;71.98535;94780;;;;
2022/02/19 00:20:56;;;;;;;4.35;0.9;;;;;;;6.15;71.98535;94780;;;;
2022/02/19 00:21:56;;;;;;;4.35;0.9;;;;;;;6.15;71.98535;94780;;;;
2022/02/19 00:22:57;;;;;;;4.35;0.9;;;;;;;6.15;71.98535;94780;;;;
2022/02/19 00:23:59;;;;;;;4.35;0.9;;;;;;;6.15;71.98535;94780;;;;
2022/02/19 00:24:59;;;;;;;4.35;0.9;;;;;;;6.15;71.98535;94780;;;;
2022/02/19 00:26:00;;;;;;;3.65;1.45;;;;;;;6.16;71.9248;94825.75;;;;
2022/02/19 00:27:00;;;;;;;3.65;1.45;;;;;;;6.16;71.9248;94825.75;;;;
2022/02/19 00:28:01;;;;;;;3.65;1.45;;;;;;;6.16;71.9248;94825.75;;;;
2022/02/19 00:29:02;;;;;;;3.65;1.45;;;;;;;6.16;71.9248;94825.75;;;;
2022/02/19 00:30:02;;;;;;;3.65;1.45;;;;;;;6.16;71.9248;94825.75;;;;
2022/02/19 00:31:06;;;;;;;3.65;1.45;;;;;;;6.16;71.9248;94825.75;;;;
2022/02/19 00:32:06;;;;;;;3.65;1.45;;;;;;;6.16;71.9248;94825.75;;;;
2022/02/19 00:33:08;;;;;;;3.65;1.45;;;;;;;6.16;71.9248;94825.75;;;;
2022/02/19 00:34:08;;;;;;;3.65;1.45;;;;;;;6.16;71.9248;94825.75;;;;
2022/02/19 00:35:09;;;;;;;3.65;1.45;;;;;;;6.16;71.9248;94825.75;;;;
2022/02/19 00:36:09;;;;;;;3.65;1.45;;;;;;;6.16;71.9248;94825.75;;;;
2022/02/19 00:37:10;;;;;;;1.55;0.9;;;;;;;6.16;71.61816;94829.86;;;;
2022/02/19 00:38:10;;;;;;;1.55;0.9;;;;;;;6.16;71.61816;94829.86;;;;
2022/02/19 00:39:12;;;;;;;1.55;0.9;;;;;;;6.16;71.61816;94829.86;;;;
2022/02/19 00:40:12;;;;;;;1.55;0.9;;;;;;;6.16;71.61816;94829.86;;;;
2022/02/19 00:41:14;;;;;;;1.55;0.9;;;;;;;6.16;71.61816;94829.86;;;;
2022/02/19 00:42:15;;;;;;;1.55;0.9;;;;;;;6.16;71.61816;94829.86;;;;
2022/02/19 00:43:15;;;;;;;1.55;0.9;;;;;;;6.16;71.61816;94829.86;;;;
2022/02/19 00:44:16;;;;;;;1.55;0.9;;;;;;;6.16;71.61816;94829.86;;;;
2022/02/19 00:45:17;;;;;;;1.55;0.9;;;;;;;6.16;71.61816;94829.86;;;;
2022/02/19 00:46:17;;;;;;;1.55;0.9;;;;;;;6.16;71.61816;94829.86;;;;
2022/02/19 00:47:18;;;;;;;1.55;0.9;;;;;;;6.16;71.61816;94829.86;;;;
2022/02/19 00:48:18;;;;;;;1.3;0.9;;;;;;;6.13;71.2002;94855.27;;;;
2022/02/19 00:49:19;;;;;;;1.3;0.9;;;;;;;6.13;71.2002;94855.27;;;;
2022/02/19 00:50:20;;;;;;;1.3;0.9;;;;;;;6.13;71.2002;94855.27;;;;
2022/02/19 00:51:20;;;;;;;1.3;0.9;;;;;;;6.13;71.2002;94855.27;;;;
2022/02/19 00:52:21;;;;;;;1.3;0.9;;;;;;;6.13;71.2002;94855.27;;;;
2022/02/19 00:53:21;;;;;;;1.3;0.9;;;;;;;6.13;71.2002;94855.27;;;;
2022/02/19 00:54:22;;;;;;;1.3;0.9;;;;;;;6.13;71.2002;94855.27;;;;
2022/02/19 00:55:22;;;;;;;1.3;0.9;;;;;;;6.13;71.2002;94855.27;;;;
2022/02/19 00:56:23;;;;;;;1.3;0.9;;;;;;;6.13;71.2002;94855.27;;;;
2022/02/19 00:57:24;;;;;;;1.3;0.9;;;;;;;6.13;71.2002;94855.27;;;;
2022/02/19 00:58:25;;;;;;;2.55;1;;;;;;;6.08;70.60742;94862.31;;;;
2022/02/19 00:59:25;;;;;;;2.55;1;;;;;;;6.08;70.60742;94862.31;;;;
2022/02/19 01:00:26;;;;;;;2.55;1;;;;;;;6.08;70.60742;94862.31;;;;
2022/02/19 01:01:26;;;;;;;2.55;1;;;;;;;6.08;70.60742;94862.31;;;;
2022/02/19 01:02:27;;;;;;;2.55;1;;;;;;;6.08;70.60742;94862.31;;;;
2022/02/19 01:03:27;;;;;;;2.55;1;;;;;;;6.08;70.60742;94862.31;;;;
2022/02/19 01:04:28;;;;;;;2.55;1;;;;;;;6.08;70.60742;94862.31;;;;
2022/02/19 01:05:28;;;;;;;2.55;1;;;;;;;6.08;70.60742;94862.31;;;;
2022/02/19 01:06:29;;;;;;;2.55;1;;;;;;;6.08;70.60742;94862.31;;;;
2022/02/19 01:07:30;;;;;;;2.55;1;;;;;;;6.08;70.60742;94862.31;;;;
2022/02/19 01:08:30;;;;;;;2.55;1;;;;;;;6.08;70.60742;94862.31;;;;
2022/02/19 01:09:31;;;;;;;2.35;1;;;;;;;6.03;70.25;94850.07;;;;
2022/02/19 01:10:31;;;;;;;2.35;1;;;;;;;6.03;70.25;94850.07;;;;
2022/02/19 01:11:32;;;;;;;2.35;1;;;;;;;6.03;70.25;94850.07;;;;
2022/02/19 01:12:33;;;;;;;2.35;1;;;;;;;6.03;70.25;94850.07;;;;
2022/02/19 01:13:34;;;;;;;2.35;1;;;;;;;6.03;70.25;94850.07;;;;
2022/02/19 01:14:35;;;;;;;2.35;1;;;;;;;6.03;70.25;94850.07;;;;
2022/02/19 01:15:35;;;;;;;2.35;1;;;;;;;6.03;70.25;94850.07;;;;
2022/02/19 01:16:36;;;;;;;2.35;1;;;;;;;6.03;70.25;94850.07;;;;
2022/02/19 01:17:36;;;;;;;2.35;1;;;;;;;6.03;70.25;94850.07;;;;
2022/02/19 01:18:37;;;;;;;2.35;1;;;;;;;6.03;70.25;94850.07;;;;
2022/02/19 01:19:38;;;;;;;2.35;1;;;;;;;6.03;70.25;94850.07;;;;
2022/02/19 01:20:41;;;;;;;2.35;1;;;;;;;6.03;70.25;94850.07;;;;
2022/02/19 01:21:42;;;;;;;2.35;1;;;;;;;6.03;70.25;94850.07;;;;
2022/02/19 01:22:43;;;;;;;2.35;1;;;;;;;6.03;70.25;94850.07;;;;
2022/02/19 01:23:43;;;;;;;2.35;1;;;;;;;6.03;70.25;94850.07;;;;
2022/02/19 01:24:44;;;;;;;2.35;1;;;;;;;6.03;70.25;94850.07;;;;
2022/02/19 01:25:45;;;;;;;2.35;1;;;;;;;6.03;70.25;94850.07;;;;
2022/02/19 01:26:45;;;;;;;2.35;1;;;;;;;6.03;70.25;94850.07;;;;
2022/02/19 01:27:46;;;;;;;2.35;1;;;;;;;6.03;70.25;94850.07;;;;
2022/02/19 01:28:46;;;;;;;2.35;1;;;;;;;6.03;70.25;94850.07;;;;
2022/02/19 01:29:47;;;;;;;2.35;1;;;;;;;6.03;70.25;94850.07;;;;
2022/02/19 01:30:47;;;;;;;1.75;1;;;;;;;5.94;67.52051;94872.85;;;;
2022/02/19 01:31:48;;;;;;;1.75;1;;;;;;;5.94;67.52051;94872.85;;;;
2022/02/19 01:32:49;;;;;;;1.75;1;;;;;;;5.94;67.52051;94872.85;;;;
2022/02/19 01:33:49;;;;;;;1.75;1;;;;;;;5.94;67.52051;94872.85;;;;
2022/02/19 01:34:50;;;;;;;1.75;1;;;;;;;5.94;67.52051;94872.85;;;;
2022/02/19 01:35:50;;;;;;;1.75;1;;;;;;;5.94;67.52051;94872.85;;;;
2022/02/19 01:36:51;;;;;;;1.75;1;;;;;;;5.94;67.52051;94872.85;;;;
2022/02/19 01:37:52;;;;;;;1.75;1;;;;;;;5.94;67.52051;94872.85;;;;
2022/02/19 01:38:52;;;;;;;1.75;1;;;;;;;5.94;67.52051;94872.85;;;;
2022/02/19 01:39:53;;;;;;;1.75;1;;;;;;;5.94;67.52051;94872.85;;;;
2022/02/19 01:40:53;;;;;;;1.45;0.8;;;;;;;5.86;66.34277;94848.47;;;;
2022/02/19 01:41:54;;;;;;;1.45;0.8;;;;;;;5.86;66.34277;94848.47;;;;
2022/02/19 01:42:55;;;;;;;1.45;0.8;;;;;;;5.86;66.34277;94848.47;;;;
2022/02/19 01:43:55;;;;;;;1.45;0.8;;;;;;;5.86;66.34277;94848.47;;;;
2022/02/19 01:44:56;;;;;;;1.45;0.8;;;;;;;5.86;66.34277;94848.47;;;;
2022/02/19 01:45:56;;;;;;;1.45;0.8;;;;;;;5.86;66.34277;94848.47;;;;
2022/02/19 01:46:57;;;;;;;1.45;0.8;;;;;;;5.86;66.34277;94848.47;;;;
2022/02/19 01:47:57;;;;;;;1.45;0.8;;;;;;;5.86;66.34277;94848.47;;;;
2022/02/19 01:48:58;;;;;;;1.45;0.8;;;;;;;5.86;66.34277;94848.47;;;;
2022/02/19 01:49:59;;;;;;;1.45;0.8;;;;;;;5.86;66.34277;94848.47;;;;
2022/02/19 01:51:00;;;;;;;1.45;0.8;;;;;;;5.86;66.34277;94848.47;;;;
2022/02/19 01:52:00;;;;;;;1.4;1;;;;;;;5.81;65.8252;94851.88;;;;
2022/02/19 01:53:01;;;;;;;1.4;1;;;;;;;5.81;65.8252;94851.88;;;;
2022/02/19 01:54:03;;;;;;;1.4;1;;;;;;;5.81;65.8252;94851.88;;;;
2022/02/19 01:55:06;;;;;;;1.4;1;;;;;;;5.81;65.8252;94851.88;;;;
2022/02/19 01:56:07;;;;;;;1.4;1;;;;;;;5.81;65.8252;94851.88;;;;
2022/02/19 01:57:08;;;;;;;1.4;1;;;;;;;5.81;65.8252;94851.88;;;;
2022/02/19 01:58:09;;;;;;;1.4;1;;;;;;;5.81;65.8252;94851.88;;;;
2022/02/19 01:59:09;;;;;;;1.4;1;;;;;;;5.81;65.8252;94851.88;;;;
2022/02/19 02:00:10;;;;;;;1.4;1;;;;;;;5.81;65.8252;94851.88;;;;
2022/02/19 02:01:11;;;;;;;1.4;1;;;;;;;5.81;65.8252;94851.88;;;;
2022/02/19 02:02:12;;;;;;;1.2;0.7;;;;;;;5.75;65.74219;94875.92;;;;
2022/02/19 02:03:12;;;;;;;1.2;0.7;;;;;;;5.75;65.74219;94875.92;;;;
2022/02/19 02:04:13;;;;;;;1.2;0.7;;;;;;;5.75;65.74219;94875.92;;;;
2022/02/19 02:05:13;;;;;;;1.2;0.7;;;;;;;5.75;65.74219;94875.92;;;;
2022/02/19 02:06:14;;;;;;;1.2;0.7;;;;;;;5.75;65.74219;94875.92;;;;
2022/02/19 02:07:17;;;;;;;1.2;0.7;;;;;;;5.75;65.74219;94875.92;;;;
2022/02/19 02:08:19;;;;;;;1.2;0.7;;;;;;;5.75;65.74219;94875.92;;;;
2022/02/19 02:09:19;;;;;;;1.2;0.7;;;;;;;5.75;65.74219;94875.92;;;;
2022/02/19 02:10:21;;;;;;;1.2;0.7;;;;;;;5.75;65.74219;94875.92;;;;
2022/02/19 02:11:21;;;;;;;1.2;0.7;;;;;;;5.75;65.74219;94875.92;;;;
2022/02/19 02:12:22;;;;;;;1.2;0.7;;;;;;;5.75;65.74219;94875.92;;;;
2022/02/19 02:13:22;;;;;;;1;0.9;;;;;;;5.6;65.89941;94875.8;;;;
2022/02/19 02:14:23;;;;;;;1;0.9;;;;;;;5.6;65.89941;94875.8;;;;
2022/02/19 02:15:23;;;;;;;1;0.9;;;;;;;5.6;65.89941;94875.8;;;;
2022/02/19 02:16:26;;;;;;;1;0.9;;;;;;;5.6;65.89941;94875.8;;;;
2022/02/19 02:17:33;;;;;;;1;0.9;;;;;;;5.6;65.89941;94875.8;;;;
2022/02/19 02:18:33;;;;;;;1;0.9;;;;;;;5.6;65.89941;94875.8;;;;
2022/02/19 02:19:34;;;;;;;1;0.9;;;;;;;5.6;65.89941;94875.8;;;;
2022/02/19 02:20:36;;;;;;;1;0.9;;;;;;;5.6;65.89941;94875.8;;;;
2022/02/19 02:21:36;;;;;;;1;0.9;;;;;;;5.6;65.89941;94875.8;;;;
2022/02/19 02:22:37;;;;;;;1;0.9;;;;;;;5.6;65.89941;94875.8;;;;
2022/02/19 02:23:37;;;;;;;1;0.8;;;;;;;5.45;66.16309;94879.27;;;;
2022/02/19 02:24:38;;;;;;;1;0.8;;;;;;;5.45;66.16309;94879.27;;;;
2022/02/19 02:25:39;;;;;;;1;0.8;;;;;;;5.45;66.16309;94879.27;;;;
2022/02/19 02:26:39;;;;;;;1;0.8;;;;;;;5.45;66.16309;94879.27;;;;
2022/02/19 02:27:40;;;;;;;1;0.8;;;;;;;5.45;66.16309;94879.27;;;;
2022/02/19 02:28:41;;;;;;;1;0.8;;;;;;;5.45;66.16309;94879.27;;;;
2022/02/19 02:29:41;;;;;;;1;0.8;;;;;;;5.45;66.16309;94879.27;;;;
2022/02/19 02:30:43;;;;;;;1;0.8;;;;;;;5.45;66.16309;94879.27;;;;
2022/02/19 02:31:44;;;;;;;1;0.8;;;;;;;5.45;66.16309;94879.27;;;;
2022/02/19 02:32:45;;;;;;;1;0.8;;;;;;;5.45;66.16309;94879.27;;;;
2022/02/19 02:33:45;;;;;;;1;0.8;;;;;;;5.45;66.16309;94879.27;;;;
2022/02/19 02:34:47;;;;;;;1.3;1;;;;;;;5.3;66.51074;94870.73;;;;
2022/02/19 02:35:49;;;;;;;1.3;1;;;;;;;5.3;66.51074;94870.73;;;;
2022/02/19 02:36:51;;;;;;;1.3;1;;;;;;;5.3;66.51074;94870.73;;;;
2022/02/19 02:37:51;;;;;;;1.3;1;;;;;;;5.3;66.51074;94870.73;;;;
2022/02/19 02:38:53;;;;;;;1.3;1;;;;;;;5.3;66.51074;94870.73;;;;
2022/02/19 02:39:54;;;;;;;1.3;1;;;;;;;5.3;66.51074;94870.73;;;;
2022/02/19 02:40:54;;;;;;;1.3;1;;;;;;;5.3;66.51074;94870.73;;;;
2022/02/19 02:41:55;;;;;;;1.3;1;;;;;;;5.3;66.51074;94870.73;;;;
2022/02/19 02:42:55;;;;;;;1.3;1;;;;;;;5.3;66.51074;94870.73;;;;
2022/02/19 02:43:56;;;;;;;1.3;1;;;;;;;5.3;66.51074;94870.73;;;;
2022/02/19 02:44:56;;;;;;;3.15;1.05;;;;;;;5.29;66.6377;94884.62;;;;
2022/02/19 02:45:57;;;;;;;3.15;1.05;;;;;;;5.29;66.6377;94884.62;;;;
2022/02/19 02:46:57;;;;;;;3.15;1.05;;;;;;;5.29;66.6377;94884.62;;;;
2022/02/19 02:47:58;;;;;;;3.15;1.05;;;;;;;5.29;66.6377;94884.62;;;;
2022/02/19 02:48:58;;;;;;;3.15;1.05;;;;;;;5.29;66.6377;94884.62;;;;
2022/02/19 02:49:59;;;;;;;3.15;1.05;;;;;;;5.29;66.6377;94884.62;;;;
2022/02/19 02:51:01;;;;;;;3.15;1.05;;;;;;;5.29;66.6377;94884.62;;;;
2022/02/19 02:52:02;;;;;;;3.15;1.05;;;;;;;5.29;66.6377;94884.62;;;;
2022/02/19 02:53:05;;;;;;;3.15;1.05;;;;;;;5.29;66.6377;94884.62;;;;
2022/02/19 02:54:05;;;;;;;3.15;1.05;;;;;;;5.29;66.6377;94884.62;;;;
2022/02/19 02:55:07;;;;;;;3.15;1.05;;;;;;;5.29;66.6377;94884.62;;;;
2022/02/19 02:56:09;;;;;;;2.9;1.05;;;;;;;5.42;66.60352;94905.14;;;;
2022/02/19 02:57:10;;;;;;;2.9;1.05;;;;;;;5.42;66.60352;94905.14;;;;
2022/02/19 02:58:11;;;;;;;2.9;1.05;;;;;;;5.42;66.60352;94905.14;;;;
2022/02/19 02:59:11;;;;;;;2.9;1.05;;;;;;;5.42;66.60352;94905.14;;;;
2022/02/19 03:00:12;;;;;;;2.9;1.05;;;;;;;5.42;66.60352;94905.14;;;;
2022/02/19 03:01:13;;;;;;;2.9;1.05;;;;;;;5.42;66.60352;94905.14;;;;
2022/02/19 03:02:14;;;;;;;2.9;1.05;;;;;;;5.42;66.60352;94905.14;;;;
2022/02/19 03:03:14;;;;;;;2.9;1.05;;;;;;;5.42;66.60352;94905.14;;;;
2022/02/19 03:04:15;;;;;;;2.9;1.05;;;;;;;5.42;66.60352;94905.14;;;;
2022/02/19 03:05:15;;;;;;;2.9;1.05;;;;;;;5.42;66.60352;94905.14;;;;
2022/02/19 03:06:16;;;;;;;2.8;1.05;;;;;;;5.58;66.66016;94918.03;;;;
2022/02/19 03:07:16;;;;;;;2.8;1.05;;;;;;;5.58;66.66016;94918.03;;;;
2022/02/19 03:08:17;;;;;;;2.8;1.05;;;;;;;5.58;66.66016;94918.03;;;;
2022/02/19 03:09:18;;;;;;;2.8;1.05;;;;;;;5.58;66.66016;94918.03;;;;
2022/02/19 03:10:18;;;;;;;2.8;1.05;;;;;;;5.58;66.66016;94918.03;;;;
2022/02/19 03:11:19;;;;;;;2.8;1.05;;;;;;;5.58;66.66016;94918.03;;;;
2022/02/19 03:12:20;;;;;;;2.8;1.05;;;;;;;5.58;66.66016;94918.03;;;;
2022/02/19 03:13:20;;;;;;;2.8;1.05;;;;;;;5.58;66.66016;94918.03;;;;
2022/02/19 03:14:21;;;;;;;2.8;1.05;;;;;;;5.58;66.66016;94918.03;;;;
2022/02/19 03:15:21;;;;;;;2.8;1.05;;;;;;;5.58;66.66016;94918.03;;;;
2022/02/19 03:16:22;;;;;;;2.8;1.05;;;;;;;5.58;66.66016;94918.03;;;;
2022/02/19 03:17:22;;;;;;;1.3;0.7;;;;;;;5.35;67.90527;94949.45;;;;
2022/02/19 03:18:23;;;;;;;1.3;0.7;;;;;;;5.35;67.90527;94949.45;;;;
2022/02/19 03:19:23;;;;;;;1.3;0.7;;;;;;;5.35;67.90527;94949.45;;;;
2022/02/19 03:20:24;;;;;;;1.3;0.7;;;;;;;5.35;67.90527;94949.45;;;;
2022/02/19 03:21:25;;;;;;;1.3;0.7;;;;;;;5.35;67.90527;94949.45;;;;
2022/02/19 03:22:25;;;;;;;1.3;0.7;;;;;;;5.35;67.90527;94949.45;;;;
2022/02/19 03:23:27;;;;;;;1.3;0.7;;;;;;;5.35;67.90527;94949.45;;;;
2022/02/19 03:24:27;;;;;;;1.3;0.7;;;;;;;5.35;67.90527;94949.45;;;;
2022/02/19 03:25:28;;;;;;;1.3;0.7;;;;;;;5.35;67.90527;94949.45;;;;
2022/02/19 03:26:28;;;;;;;1.3;0.7;;;;;;;5.35;67.90527;94949.45;;;;
2022/02/19 03:27:29;;;;;;;1.1;0.8;;;;;;;4.81;70.30566;94964.53;;;;
2022/02/19 03:28:29;;;;;;;1.1;0.8;;;;;;;4.81;70.30566;94964.53;;;;
2022/02/19 03:29:30;;;;;;;1.1;0.8;;;;;;;4.81;70.30566;94964.53;;;;
2022/02/19 03:30:31;;;;;;;1.1;0.8;;;;;;;4.81;70.30566;94964.53;;;;
2022/02/19 03:31:31;;;;;;;1.1;0.8;;;;;;;4.81;70.30566;94964.53;;;;
2022/02/19 03:32:32;;;;;;;1.1;0.8;;;;;;;4.81;70.30566;94964.53;;;;
2022/02/19 03:33:33;;;;;;;1.1;0.8;;;;;;;4.81;70.30566;94964.53;;;;
2022/02/19 03:34:33;;;;;;;1.1;0.8;;;;;;;4.81;70.30566;94964.53;;;;
2022/02/19 03:35:34;;;;;;;1.1;0.8;;;;;;;4.81;70.30566;94964.53;;;;
2022/02/19 03:36:34;;;;;;;1.1;0.8;;;;;;;4.81;70.30566;94964.53;;;;
2022/02/19 03:37:35;;;;;;;1.1;0.8;;;;;;;4.81;70.30566;94964.53;;;;
2022/02/19 03:38:37;;;;;;;1;0.8;;;;;;;4.27;72.1709;94984.4;;;;
2022/02/19 03:39:37;;;;;;;1;0.8;;;;;;;4.27;72.1709;94984.4;;;;
2022/02/19 03:40:38;;;;;;;1;0.8;;;;;;;4.27;72.1709;94984.4;;;;
2022/02/19 03:41:38;;;;;;;1;0.8;;;;;;;4.27;72.1709;94984.4;;;;
2022/02/19 03:42:39;;;;;;;1;0.8;;;;;;;4.27;72.1709;94984.4;;;;
2022/02/19 03:43:41;;;;;;;1;0.8;;;;;;;4.27;72.1709;94984.4;;;;
2022/02/19 03:44:41;;;;;;;1;0.8;;;;;;;4.27;72.1709;94984.4;;;;
2022/02/19 03:45:43;;;;;;;1;0.8;;;;;;;4.27;72.1709;94984.4;;;;
2022/02/19 03:46:44;;;;;;;1;0.8;;;;;;;4.27;72.1709;94984.4;;;;
2022/02/19 03:47:44;;;;;;;1;0.8;;;;;;;4.27;72.1709;94984.4;;;;
2022/02/19 03:48:45;;;;;;;2.5;0.8;;;;;;;3.53;73.24707;94975.2;;;;
2022/02/19 03:49:46;;;;;;;2.5;0.8;;;;;;;3.53;73.24707;94975.2;;;;
2022/02/19 03:50:46;;;;;;;2.5;0.8;;;;;;;3.53;73.24707;94975.2;;;;
2022/02/19 03:51:47;;;;;;;2.5;0.8;;;;;;;3.53;73.24707;94975.2;;;;
2022/02/19 03:52:47;;;;;;;2.5;0.8;;;;;;;3.53;73.24707;94975.2;;;;
2022/02/19 03:53:48;;;;;;;2.5;0.8;;;;;;;3.53;73.24707;94975.2;;;;
2022/02/19 03:54:48;;;;;;;2.5;0.8;;;;;;;3.53;73.24707;94975.2;;;;
2022/02/19 03:55:49;;;;;;;2.5;0.8;;;;;;;3.53;73.24707;94975.2;;;;
2022/02/19 03:56:49;;;;;;;2.5;0.8;;;;;;;3.53;73.24707;94975.2;;;;
2022/02/19 03:57:50;;;;;;;2.5;0.8;;;;;;;3.53;73.24707;94975.2;;;;
2022/02/19 03:58:50;;;;;;;2.5;0.8;;;;;;;3.53;73.24707;94975.2;;;;
2022/02/19 03:59:51;;;;;;;0.65;0.65;;;;;;;3.09;74.70801;94992.16;;;;
2022/02/19 04:00:52;;;;;;;0.65;0.65;;;;;;;3.09;74.70801;94992.16;;;;
2022/02/19 04:01:52;;;;;;;0.65;0.65;;;;;;;3.09;74.70801;94992.16;;;;
2022/02/19 04:02:53;;;;;;;0.65;0.65;;;;;;;3.09;74.70801;94992.16;;;;
2022/02/19 04:03:53;;;;;;;0.65;0.65;;;;;;;3.09;74.70801;94992.16;;;;
2022/02/19 04:04:54;;;;;;;0.65;0.65;;;;;;;3.09;74.70801;94992.16;;;;
2022/02/19 04:05:54;;;;;;;0.65;0.65;;;;;;;3.09;74.70801;94992.16;;;;
2022/02/19 04:06:55;;;;;;;0.65;0.65;;;;;;;3.09;74.70801;94992.16;;;;
2022/02/19 04:07:56;;;;;;;0.65;0.65;;;;;;;3.09;74.70801;94992.16;;;;
2022/02/19 04:08:56;;;;;;;0.65;0.65;;;;;;;3.09;74.70801;94992.16;;;;
2022/02/19 04:09:57;;;;;;;0.65;0.65;;;;;;;3.09;74.70801;94992.16;;;;
2022/02/19 04:10:58;;;;;;;1.05;0.7;;;;;;;2.82;76.08984;94992.94;;;;
2022/02/19 04:11:58;;;;;;;1.05;0.7;;;;;;;2.82;76.08984;94992.94;;;;
2022/02/19 04:12:59;;;;;;;1.05;0.7;;;;;;;2.82;76.08984;94992.94;;;;
2022/02/19 04:13:59;;;;;;;1.05;0.7;;;;;;;2.82;76.08984;94992.94;;;;
2022/02/19 04:15:00;;;;;;;1.05;0.7;;;;;;;2.82;76.08984;94992.94;;;;
2022/02/19 04:16:00;;;;;;;1.05;0.7;;;;;;;2.82;76.08984;94992.94;;;;
2022/02/19 04:17:02;;;;;;;1.05;0.7;;;;;;;2.82;76.08984;94992.94;;;;
2022/02/19 04:18:03;;;;;;;1.05;0.7;;;;;;;2.82;76.08984;94992.94;;;;
2022/02/19 04:19:03;;;;;;;1.05;0.7;;;;;;;2.82;76.08984;94992.94;;;;
2022/02/19 04:20:04;;;;;;;1.05;0.7;;;;;;;2.82;76.08984;94992.94;;;;
2022/02/19 04:21:07;;;;;;;2.35;0.8;;;;;;;2.73;77.42676;95002.11;;;;
2022/02/19 04:22:08;;;;;;;2.35;0.8;;;;;;;2.73;77.42676;95002.11;;;;
2022/02/19 04:23:09;;;;;;;2.35;0.8;;;;;;;2.73;77.42676;95002.11;;;;
2022/02/19 04:24:09;;;;;;;2.35;0.8;;;;;;;2.73;77.42676;95002.11;;;;
2022/02/19 04:25:10;;;;;;;2.35;0.8;;;;;;;2.73;77.42676;95002.11;;;;
2022/02/19 04:26:11;;;;;;;2.35;0.8;;;;;;;2.73;77.42676;95002.11;;;;
2022/02/19 04:27:11;;;;;;;2.35;0.8;;;;;;;2.73;77.42676;95002.11;;;;
2022/02/19 04:28:12;;;;;;;2.35;0.8;;;;;;;2.73;77.42676;95002.11;;;;
2022/02/19 04:29:12;;;;;;;2.35;0.8;;;;;;;2.73;77.42676;95002.11;;;;
2022/02/19 04:30:13;;;;;;;2.35;0.8;;;;;;;2.73;77.42676;95002.11;;;;
2022/02/19 04:31:13;;;;;;;2.35;0.8;;;;;;;2.73;77.42676;95002.11;;;;
2022/02/19 04:32:14;;;;;;;2.35;0.8;;;;;;;2.73;77.42676;95002.11;;;;
2022/02/19 04:33:15;;;;;;;2.35;0.8;;;;;;;2.73;77.42676;95002.11;;;;
2022/02/19 04:34:15;;;;;;;2.35;0.8;;;;;;;2.73;77.42676;95002.11;;;;
2022/02/19 04:35:17;;;;;;;2.35;0.8;;;;;;;2.73;77.42676;95002.11;;;;
2022/02/19 04:36:17;;;;;;;2.35;0.8;;;;;;;2.73;77.42676;95002.11;;;;
2022/02/19 04:37:18;;;;;;;2.35;0.8;;;;;;;2.73;77.42676;95002.11;;;;
2022/02/19 04:38:20;;;;;;;2.35;0.8;;;;;;;2.73;77.42676;95002.11;;;;
2022/02/19 04:39:21;;;;;;;2.35;0.8;;;;;;;2.73;77.42676;95002.11;;;;
2022/02/19 04:40:21;;;;;;;2.35;0.8;;;;;;;2.73;77.42676;95002.11;;;;
2022/02/19 04:41:22;;;;;;;2.35;0.8;;;;;;;2.73;77.42676;95002.11;;;;
2022/02/19 04:42:22;;;;;;;3.55;0.95;;;;;;;2.63;80.71387;95025.59;;;;
2022/02/19 04:43:23;;;;;;;3.55;0.95;;;;;;;2.63;80.71387;95025.59;;;;
2022/02/19 04:44:23;;;;;;;3.55;0.95;;;;;;;2.63;80.71387;95025.59;;;;
2022/02/19 04:45:24;;;;;;;3.55;0.95;;;;;;;2.63;80.71387;95025.59;;;;
2022/02/19 04:46:25;;;;;;;3.55;0.95;;;;;;;2.63;80.71387;95025.59;;;;
2022/02/19 04:47:25;;;;;;;3.55;0.95;;;;;;;2.63;80.71387;95025.59;;;;
2022/02/19 04:48:26;;;;;;;3.55;0.95;;;;;;;2.63;80.71387;95025.59;;;;
2022/02/19 04:49:26;;;;;;;3.55;0.95;;;;;;;2.63;80.71387;95025.59;;;;
2022/02/19 04:50:27;;;;;;;3.55;0.95;;;;;;;2.63;80.71387;95025.59;;;;
2022/02/19 04:51:28;;;;;;;3.55;0.95;;;;;;;2.63;80.71387;95025.59;;;;
2022/02/19 04:52:29;;;;;;;3.55;0.95;;;;;;;2.63;80.71387;95025.59;;;;
2022/02/19 04:53:29;;;;;;;1.65;0.7;;;;;;;2.68;82.27441;95038.75;;;;
2022/02/19 04:54:30;;;;;;;1.65;0.7;;;;;;;2.68;82.27441;95038.75;;;;
2022/02/19 04:55:30;;;;;;;1.65;0.7;;;;;;;2.68;82.27441;95038.75;;;;
2022/02/19 04:56:31;;;;;;;1.65;0.7;;;;;;;2.68;82.27441;95038.75;;;;
2022/02/19 04:57:32;;;;;;;1.65;0.7;;;;;;;2.68;82.27441;95038.75;;;;
2022/02/19 04:58:33;;;;;;;1.65;0.7;;;;;;;2.68;82.27441;95038.75;;;;
2022/02/19 04:59:33;;;;;;;1.65;0.7;;;;;;;2.68;82.27441;95038.75;;;;
2022/02/19 05:00:34;;;;;;;1.65;0.7;;;;;;;2.68;82.27441;95038.75;;;;
2022/02/19 05:01:35;;;;;;;1.65;0.7;;;;;;;2.68;82.27441;95038.75;;;;
2022/02/19 05:02:35;;;;;;;1.65;0.7;;;;;;;2.68;82.27441;95038.75;;;;
2022/02/19 05:03:35;;;;;;;2.65;0.9;;;;;;;2.75;83.27246;95046.31;;;;
2022/02/19 05:04:36;;;;;;;2.65;0.9;;;;;;;2.75;83.27246;95046.31;;;;
2022/02/19 05:05:36;;;;;;;2.65;0.9;;;;;;;2.75;83.27246;95046.31;;;;
2022/02/19 05:06:37;;;;;;;2.65;0.9;;;;;;;2.75;83.27246;95046.31;;;;
2022/02/19 05:07:37;;;;;;;2.65;0.9;;;;;;;2.75;83.27246;95046.31;;;;
2022/02/19 05:08:38;;;;;;;2.65;0.9;;;;;;;2.75;83.27246;95046.31;;;;
2022/02/19 05:09:39;;;;;;;2.65;0.9;;;;;;;2.75;83.27246;95046.31;;;;
2022/02/19 05:10:39;;;;;;;2.65;0.9;;;;;;;2.75;83.27246;95046.31;;;;
2022/02/19 05:11:40;;;;;;;2.65;0.9;;;;;;;2.75;83.27246;95046.31;;;;
2022/02/19 05:12:41;;;;;;;2.65;0.9;;;;;;;2.75;83.27246;95046.31;;;;
2022/02/19 05:13:41;;;;;;;2.65;0.9;;;;;;;2.75;83.27246;95046.31;;;;
2022/02/19 05:14:42;;;;;;;2.65;0.9;;;;;;;2.75;83.27246;95046.31;;;;
2022/02/19 05:15:42;;;;;;;2.65;0.9;;;;;;;2.75;83.27246;95046.31;;;;
2022/02/19 05:16:43;;;;;;;2.65;0.9;;;;;;;2.75;83.27246;95046.31;;;;
2022/02/19 05:17:43;;;;;;;2.65;0.9;;;;;;;2.75;83.27246;95046.31;;;;
2022/02/19 05:18:46;;;;;;;2.65;0.9;;;;;;;2.75;83.27246;95046.31;;;;
2022/02/19 05:19:46;;;;;;;2.65;0.9;;;;;;;2.75;83.27246;95046.31;;;;
2022/02/19 05:20:47;;;;;;;2.65;0.9;;;;;;;2.75;83.27246;95046.31;;;;
2022/02/19 05:21:47;;;;;;;2.65;0.9;;;;;;;2.75;83.27246;95046.31;;;;
2022/02/19 05:22:48;;;;;;;2.65;0.9;;;;;;;2.75;83.27246;95046.31;;;;
2022/02/19 05:23:50;;;;;;;2.65;0.9;;;;;;;2.75;83.27246;95046.31;;;;
2022/02/19 05:24:51;;;;;;;1.85;1;;;;;;;2.96;84.59082;95065.41;;;;
2022/02/19 05:25:51;;;;;;;1.85;1;;;;;;;2.96;84.59082;95065.41;;;;
2022/02/19 05:26:52;;;;;;;1.85;1;;;;;;;2.96;84.59082;95065.41;;;;
2022/02/19 05:27:52;;;;;;;1.85;1;;;;;;;2.96;84.59082;95065.41;;;;
2022/02/19 05:28:53;;;;;;;1.85;1;;;;;;;2.96;84.59082;95065.41;;;;
2022/02/19 05:29:53;;;;;;;1.85;1;;;;;;;2.96;84.59082;95065.41;;;;
2022/02/19 05:30:54;;;;;;;1.85;1;;;;;;;2.96;84.59082;95065.41;;;;
2022/02/19 05:31:55;;;;;;;1.85;1;;;;;;;2.96;84.59082;95065.41;;;;
2022/02/19 05:32:55;;;;;;;1.85;1;;;;;;;2.96;84.59082;95065.41;;;;
2022/02/19 05:33:56;;;;;;;1.85;1;;;;;;;2.96;84.59082;95065.41;;;;
2022/02/19 05:34:56;;;;;;;1.85;1;;;;;;;2.96;84.59082;95065.41;;;;
2022/02/19 05:35:57;;;;;;;4.9;1.2;;;;;;;3.05;84.78906;95086.83;;;;
2022/02/19 05:36:57;;;;;;;4.9;1.2;;;;;;;3.05;84.78906;95086.83;;;;
2022/02/19 05:37:58;;;;;;;4.9;1.2;;;;;;;3.05;84.78906;95086.83;;;;
2022/02/19 05:39:02;;;;;;;4.9;1.2;;;;;;;3.05;84.78906;95086.83;;;;
2022/02/19 05:40:03;;;;;;;4.9;1.2;;;;;;;3.05;84.78906;95086.83;;;;
2022/02/19 05:41:05;;;;;;;4.9;1.2;;;;;;;3.05;84.78906;95086.83;;;;
2022/02/19 05:42:06;;;;;;;4.9;1.2;;;;;;;3.05;84.78906;95086.83;;;;
2022/02/19 05:43:08;;;;;;;4.9;1.2;;;;;;;3.05;84.78906;95086.83;;;;
2022/02/19 05:44:08;;;;;;;4.9;1.2;;;;;;;3.05;84.78906;95086.83;;;;
2022/02/19 05:45:09;;;;;;;4.9;1.2;;;;;;;3.05;84.78906;95086.83;;;;
2022/02/19 05:46:09;;;;;;;7.150001;1.7;;;;;;;3.25;85.67773;95097.2;;;;
2022/02/19 05:47:10;;;;;;;7.150001;1.7;;;;;;;3.25;85.67773;95097.2;;;;
2022/02/19 05:48:10;;;;;;;7.150001;1.7;;;;;;;3.25;85.67773;95097.2;;;;
2022/02/19 05:49:11;;;;;;;7.150001;1.7;;;;;;;3.25;85.67773;95097.2;;;;
2022/02/19 05:50:11;;;;;;;7.150001;1.7;;;;;;;3.25;85.67773;95097.2;;;;
2022/02/19 05:51:12;;;;;;;7.150001;1.7;;;;;;;3.25;85.67773;95097.2;;;;
2022/02/19 05:52:13;;;;;;;7.150001;1.7;;;;;;;3.25;85.67773;95097.2;;;;
2022/02/19 05:53:13;;;;;;;7.150001;1.7;;;;;;;3.25;85.67773;95097.2;;;;
2022/02/19 05:54:14;;;;;;;7.150001;1.7;;;;;;;3.25;85.67773;95097.2;;;;
2022/02/19 05:55:14;;;;;;;7.150001;1.7;;;;;;;3.25;85.67773;95097.2;;;;
2022/02/19 05:56:15;;;;;;;7.150001;1.7;;;;;;;3.25;85.67773;95097.2;;;;
2022/02/19 05:57:16;;;;;;;3.999999;1.4;;;;;;;3.46;85.81152;95116.72;;;;
2022/02/19 05:58:16;;;;;;;3.999999;1.4;;;;;;;3.46;85.81152;95116.72;;;;
2022/02/19 05:59:17;;;;;;;3.999999;1.4;;;;;;;3.46;85.81152;95116.72;;;;
2022/02/19 06:00:18;;;;;;;3.999999;1.4;;;;;;;3.46;85.81152;95116.72;;;;